Flight Track Log - Related Links

Times and Time Zones

All times are in EDT time to prevent confusion due to time zone crossing. See the SKW6315 flight status page for this flight to view local times or setup timezone preferences in your user account.

Time Position Orientation Groundspeed Altitude Reporting Facility
EDT Latitude Longitude Course Direction KTS MPH feet Rate Location/Type
Thu 11:29:32 AM 33.8326 -116.5514 North  Level FlightAware Approximate
Thu 11:30:17 AM 33.8833 -116.5500 309° West 190 219 3,000  Level Southern California TRACON
Thu 11:35:18 AM 33.9500 -116.6500 270° West 243 280 10,000 1,163 Climbing Southern California TRACON
Thu 11:36:18 AM 33.9500 -116.7333 270° West 256 295 10,000  Level Southern California TRACON
Thu 11:37:18 AM 33.9500 -116.8167 270° West 251 289 10,000  Level Southern California TRACON
Thu 11:38:24 AM 33.9500 -116.9167 256° West 246 283 10,000 -286 Level Southern California TRACON
Thu 11:39:24 AM 33.9333 -117.0000 270° West 254 292 9,400 -950 Descending Southern California TRACON
Thu 11:40:24 AM 33.9333 -117.0833 270° West 277 319 8,100 -783 Descending Southern California TRACON
Thu 11:41:19 AM 33.9333 -117.1667 270° West 266 306 7,900 -52 Descending Southern California TRACON
Thu 11:42:19 AM 33.9333 -117.2500 270° West 254 292 8,000 50 Climbing Southern California TRACON
Thu 11:43:19 AM 33.9333 -117.3333 256° West 251 289 8,000 -50 Level Southern California TRACON
Thu 11:44:20 AM 33.9167 -117.4167 270° West 249 287 7,900 -47 Descending Southern California TRACON
Thu 11:45:26 AM 33.9167 -117.5167 270° West 254 292 7,900  Level Southern California TRACON
Thu 11:46:26 AM 33.9167 -117.6000 270° West 250 288 7,900  Level Southern California TRACON
Thu 11:47:20 AM 33.9167 -117.6833 270° West 252 290 7,900  Level Southern California TRACON
Thu 11:48:20 AM 33.9167 -117.7667 284° West 252 290 7,900  Level Southern California TRACON
Thu 11:49:20 AM 33.9333 -117.8500 270° West 257 296 7,900 -645 Level Southern California TRACON
Thu 11:50:21 AM 33.9333 -117.9333 284° West 282 325 6,600 -595 Descending Southern California TRACON
Thu 11:51:21 AM 33.9500 -118.0167 287° West 218 251 6,700 -571 Climbing Southern California TRACON
Thu 11:52:27 AM 33.9667 -118.0833 270° West 190 219 5,400 -1,150 Descending Southern California TRACON
Thu 11:53:21 AM 33.9667 -118.1333 253° West 178 205 4,400 -1,000 Descending Southern California TRACON
Thu 11:54:27 AM 33.9500 -118.2000 270° West 171 197 3,400 -992 Descending Southern California TRACON
Thu 11:55:22 AM 33.9500 -118.2500 270° West 171 197 2,400 -1,091 Descending Southern California TRACON

Login

Don't have an account? Register now (free) for customized features, flight alerts, and more!